Accueil
METAR-TAF:

METAR-TAF

Aéroports :

St Athan, Pays de Galles

latitude: 51-24N, longitude: 003-26W, altitude: 50 m

Observation

Le bulletin a été fait il y a 43 minutes, à 21:50 UTC
Vent 9 kt de sud
Température 15°C
Humidité 72%
Pression 1008 hPa
Visibilité 10 km ou plus

METAR: EGDX 202150Z AUTO 18009KT 9999 SCT030/// BKN037/// BKN048/// 15/10 Q1008 RERA

Heure: 23:33 (22:33 UTC)

Prévision

Le bulletin a été fait il y a 12 heures et 17 minutes, à 10:16 UTC
Prévision valable du 20 à 12 UTC au 20 à 18 UTC
Vent 15 kt de ouest
Visibilité 10 km ou plus
Nuages épars à une hauteur de 3000 ft

TAF: EGDX 201016Z 2012/2018 26015KT 9999 SCT030

Observations et prévisions météorologiques de plus de 4000 aéroports (messages METAR et TAF).

Les stations disponibles sont représentées par des disques jaunes et rouges sur la carte.

Passer la souris dessus pour voir le nom de la station.

Cliquer dessus pour voir les observations et prévisions météorologiques.

Pour changer de carte: cliquez sur les boutons verts avec une croix noire pour zoomer, sur le bouton vert avec un tiret pour effectuer un zoom arrière, ou sur les flèches vertes pour les cartes adjacentes.


METAR-TAF: